Buoy 41609

sailwx.info

Track history (hours):
 
Tides and Currents Weather Stations Pressure Air Temp Water Temp Dewpoint Dewpoint Depression Visibility Wind Speed Wind Dir Waves Ship Positions

Drifting buoy 41609

Last reported at 2016-Feb-05 20:00 UTC. Time now 2016-Feb-05 22:16 UTC.
Position N 48°01' W 010°10'.

Water temperature 12.2 ° C

Date/timePositionNaut miles runAvg speedWind from/ knotsBaromVisibWave heightAir tempDewpointWater temp
2016-Feb-05 20:00N 48°01' W 010°10'0 0.0 12.2
2016-Feb-05 18:00N 48°01' W 010°10'1 0.7 12.2
2016-Feb-05 17:00N 48°02' W 010°10'1 0.2 12.2
2016-Feb-05 14:00N 48°02' W 010°11'0 0.0 12.2
2016-Feb-05 13:00N 48°02' W 010°11'2 0.3 12.2
2016-Feb-05 07:00N 48°01' W 010°13'0 0.0 12.2
2016-Feb-05 06:00N 48°01' W 010°13'0 0.2 12.2
2016-Feb-05 05:00N 48°01' W 010°13'1 0.1 12.2
2016-Feb-04 22:00N 48°00' W 010°13'0 0.2 12.2
2016-Feb-04 21:00N 48°00' W 010°13'1 0.6 12.2
2016-Feb-04 20:00N 48°01' W 010°13'0 0.0 12.2
2016-Feb-04 19:00N 48°01' W 010°13'0 0.4 12.2
2016-Feb-04 18:00N 48°00' W 010°14'0 0.0 12.2
2016-Feb-04 17:00N 48°00' W 010°14'1 0.4 12.2
2016-Feb-04 14:00N 48°00' W 010°15'0 0.0 12.2
2016-Feb-04 10:00N 48°00' W 010°15'1 0.3 12.2
2016-Feb-04 05:00N 48°02' W 010°15'2 0.2 12.2
2016-Feb-03 17:00N 48°04' W 010°15'2 0.3 12.2
2016-Feb-03 08:00N 48°06' W 010°16'3 0.5 12.2
2016-Feb-03 03:00N 48°09' W 010°16'1 1.4 12.2
2016-Feb-03 02:00N 48°07' W 010°16'2 0.3 12.2
2016-Feb-02 18:00N 48°09' W 010°17'0 0.0 12.2
2016-Feb-02 17:00N 48°09' W 010°17'0 0.0 12.2
2016-Feb-02 14:00N 48°09' W 010°17'2 0.3 12.2
2016-Feb-02 09:00N 48°11' W 010°18'0 0.0 12.2
2016-Feb-02 08:00N 48°11' W 010°18'1 1.0 12.2
2016-Feb-02 07:00N 48°12' W 010°18'0 0.2 12.3
2016-Feb-02 05:00N 48°12' W 010°19'0 0.5 12.3
2016-Feb-02 04:00N 48°12' W 010°19'0 0.0 12.3
2016-Feb-01 21:00N 48°12' W 010°19'1 0.6 12.2
2016-Feb-01 19:00N 48°13' W 010°19'2 0.5 12.2
2016-Feb-01 15:00N 48°14' W 010°21'0 0.0 12.2
2016-Feb-01 14:00N 48°14' W 010°21'2 0.9 12.2
2016-Feb-01 12:00N 48°14' W 010°24'1 0.5 12.2
2016-Feb-01 10:00N 48°13' W 010°25'0 0.1 12.2
2016-Feb-01 08:00N 48°13' W 010°25'0 0.3 12.2
2016-Feb-01 07:00N 48°13' W 010°25'0 0.3 12.2
2016-Feb-01 06:00N 48°13' W 010°25'1 0.2 12.2
2016-Feb-01 02:00N 48°13' W 010°26'2 0.6 12.2
2016-Jan-31 22:00N 48°13' W 010°30'0 0.5 12.2
2016-Jan-31 21:00N 48°12' W 010°30'1 0.8 12.2
2016-Jan-31 20:00N 48°12' W 010°32'0 0.2 12.2
2016-Jan-31 18:00N 48°12' W 010°32'0 0.0 12.2
2016-Jan-31 17:00N 48°12' W 010°32'5 1.0 12.2
2016-Jan-31 12:00N 48°12' W 010°39'0 0.0 12.2
2016-Jan-31 08:00N 48°12' W 010°39'1 0.3 12.2
2016-Jan-31 06:00N 48°12' W 010°40'4 4.1 12.2
2016-Jan-31 05:00N 48°12' W 010°46'0 0.0 12.2
2016-Jan-30 22:00N 48°12' W 010°46'1 0.3 12.2
2016-Jan-30 20:00N 48°11' W 010°47'0 0.0 12.2
2016-Jan-30 19:00N 48°11' W 010°47'3 0.4 12.2
2016-Jan-30 11:00N 48°10' W 010°52'2 0.6 12.2
2016-Jan-30 08:00N 48°08' W 010°53'5 0.5 12.2
2016-Jan-29 22:00N 48°07' W 010°59'0 0.0 12.2
2016-Jan-29 21:00N 48°07' W 010°59'2 1.8 12.2
2016-Jan-29 20:00N 48°06' W 011°02'0 0.1 12.2
2016-Jan-29 19:00N 48°07' W 011°02'1 0.4 12.2
2016-Jan-29 17:00N 48°06' W 011°02'2 0.3 12.2
2016-Jan-29 11:00N 48°06' W 011°05'1 0.8 12.2
2016-Jan-29 10:00N 48°06' W 011°06'0 0.0 12.2
2016-Jan-29 05:00N 48°07' W 011°06'4 3.6 12.2
2016-Jan-29 04:00N 48°05' W 011°11'0 0.0 12.2
2016-Jan-28 23:00N 48°05' W 011°11'2 0.3 12.2
2016-Jan-28 18:00N 48°06' W 011°13'2 1.6 12.2
2016-Jan-28 17:00N 48°06' W 011°16'0 0.0 12.2
2016-Jan-28 16:00N 48°06' W 011°16'6 1.0 12.2
2016-Jan-28 10:00N 48°01' W 011°21'0 0.0 12.2
2016-Jan-28 08:00N 48°01' W 011°21'0 0.0 12.2
2016-Jan-28 07:00N 48°01' W 011°21'1 0.5 12.2
2016-Jan-28 06:00N 48°01' W 011°21'3 0.3 12.2
2016-Jan-27 22:00N 47°60' W 011°25'0 0.1 12.2
2016-Jan-27 21:00N 47°60' W 011°25'0 0.3 12.1
2016-Jan-27 20:00N 48°00' W 011°25'0 0.0 12.1
2016-Jan-27 18:00N 48°00' W 011°25'2 0.4 12.1
2016-Jan-27 13:00N 48°00' W 011°28'0 0.4 12.2
2016-Jan-27 12:00N 48°00' W 011°27'1 0.3 12.1
2016-Jan-27 09:00N 48°01' W 011°27'1 0.4 12.1
2016-Jan-27 07:00N 48°02' W 011°28'4 2.0 12.1
2016-Jan-27 05:00N 47°60' W 011°33'1 0.1 12.1
2016-Jan-26 21:00N 47°59' W 011°34'1 0.8 12.2
2016-Jan-26 20:00N 47°59' W 011°35'   12.2
Track history (hours):
 
Tides and Currents Weather Stations Pressure Air Temp Water Temp Dewpoint Dewpoint Depression Visibility Wind Speed Wind Dir Waves Ship Positions

Drifting buoy 41609

Last reported at 2016-Feb-05 20:00 UTC. Time now 2016-Feb-05 22:16 UTC.
Position N 48°01' W 010°10'.

Water temperature 12.2 ° C

Date/timePositionNaut miles runAvg speedWind from/ knotsBaromVisibWave heightAir tempDewpointWater temp
2016-Feb-05 20:00N 48°01' W 010°10'0 0.0 12.2
2016-Feb-05 18:00N 48°01' W 010°10'1 0.7 12.2
2016-Feb-05 17:00N 48°02' W 010°10'1 0.2 12.2
2016-Feb-05 14:00N 48°02' W 010°11'0 0.0 12.2
2016-Feb-05 13:00N 48°02' W 010°11'2 0.3 12.2
2016-Feb-05 07:00N 48°01' W 010°13'0 0.0 12.2
2016-Feb-05 06:00N 48°01' W 010°13'0 0.2 12.2
2016-Feb-05 05:00N 48°01' W 010°13'1 0.1 12.2
2016-Feb-04 22:00N 48°00' W 010°13'0 0.2 12.2
2016-Feb-04 21:00N 48°00' W 010°13'1 0.6 12.2
2016-Feb-04 20:00N 48°01' W 010°13'0 0.0 12.2
2016-Feb-04 19:00N 48°01' W 010°13'0 0.4 12.2
2016-Feb-04 18:00N 48°00' W 010°14'0 0.0 12.2
2016-Feb-04 17:00N 48°00' W 010°14'1 0.4 12.2
2016-Feb-04 14:00N 48°00' W 010°15'0 0.0 12.2
2016-Feb-04 10:00N 48°00' W 010°15'1 0.3 12.2
2016-Feb-04 05:00N 48°02' W 010°15'2 0.2 12.2
2016-Feb-03 17:00N 48°04' W 010°15'2 0.3 12.2
2016-Feb-03 08:00N 48°06' W 010°16'3 0.5 12.2
2016-Feb-03 03:00N 48°09' W 010°16'1 1.4 12.2
2016-Feb-03 02:00N 48°07' W 010°16'2 0.3 12.2
2016-Feb-02 18:00N 48°09' W 010°17'0 0.0 12.2
2016-Feb-02 17:00N 48°09' W 010°17'0 0.0 12.2
2016-Feb-02 14:00N 48°09' W 010°17'2 0.3 12.2
2016-Feb-02 09:00N 48°11' W 010°18'0 0.0 12.2
2016-Feb-02 08:00N 48°11' W 010°18'1 1.0 12.2
2016-Feb-02 07:00N 48°12' W 010°18'0 0.2 12.3
2016-Feb-02 05:00N 48°12' W 010°19'0 0.5 12.3
2016-Feb-02 04:00N 48°12' W 010°19'0 0.0 12.3
2016-Feb-01 21:00N 48°12' W 010°19'1 0.6 12.2
2016-Feb-01 19:00N 48°13' W 010°19'2 0.5 12.2
2016-Feb-01 15:00N 48°14' W 010°21'0 0.0 12.2
2016-Feb-01 14:00N 48°14' W 010°21'2 0.9 12.2
2016-Feb-01 12:00N 48°14' W 010°24'1 0.5 12.2
2016-Feb-01 10:00N 48°13' W 010°25'0 0.1 12.2
2016-Feb-01 08:00N 48°13' W 010°25'0 0.3 12.2
2016-Feb-01 07:00N 48°13' W 010°25'0 0.3 12.2
2016-Feb-01 06:00N 48°13' W 010°25'1 0.2 12.2
2016-Feb-01 02:00N 48°13' W 010°26'2 0.6 12.2
2016-Jan-31 22:00N 48°13' W 010°30'0 0.5 12.2
2016-Jan-31 21:00N 48°12' W 010°30'1 0.8 12.2
2016-Jan-31 20:00N 48°12' W 010°32'0 0.2 12.2
2016-Jan-31 18:00N 48°12' W 010°32'0 0.0 12.2
2016-Jan-31 17:00N 48°12' W 010°32'5 1.0 12.2
2016-Jan-31 12:00N 48°12' W 010°39'0 0.0 12.2
2016-Jan-31 08:00N 48°12' W 010°39'1 0.3 12.2
2016-Jan-31 06:00N 48°12' W 010°40'4 4.1 12.2
2016-Jan-31 05:00N 48°12' W 010°46'0 0.0 12.2
2016-Jan-30 22:00N 48°12' W 010°46'1 0.3 12.2
2016-Jan-30 20:00N 48°11' W 010°47'0 0.0 12.2
2016-Jan-30 19:00N 48°11' W 010°47'3 0.4 12.2
2016-Jan-30 11:00N 48°10' W 010°52'2 0.6 12.2
2016-Jan-30 08:00N 48°08' W 010°53'5 0.5 12.2
2016-Jan-29 22:00N 48°07' W 010°59'0 0.0 12.2
2016-Jan-29 21:00N 48°07' W 010°59'2 1.8 12.2
2016-Jan-29 20:00N 48°06' W 011°02'0 0.1 12.2
2016-Jan-29 19:00N 48°07' W 011°02'1 0.4 12.2
2016-Jan-29 17:00N 48°06' W 011°02'2 0.3 12.2
2016-Jan-29 11:00N 48°06' W 011°05'1 0.8 12.2
2016-Jan-29 10:00N 48°06' W 011°06'0 0.0 12.2
2016-Jan-29 05:00N 48°07' W 011°06'4 3.6 12.2
2016-Jan-29 04:00N 48°05' W 011°11'0 0.0 12.2
2016-Jan-28 23:00N 48°05' W 011°11'2 0.3 12.2
2016-Jan-28 18:00N 48°06' W 011°13'2 1.6 12.2
2016-Jan-28 17:00N 48°06' W 011°16'0 0.0 12.2
2016-Jan-28 16:00N 48°06' W 011°16'6 1.0 12.2
2016-Jan-28 10:00N 48°01' W 011°21'0 0.0 12.2
2016-Jan-28 08:00N 48°01' W 011°21'0 0.0 12.2
2016-Jan-28 07:00N 48°01' W 011°21'1 0.5 12.2
2016-Jan-28 06:00N 48°01' W 011°21'3 0.3 12.2
2016-Jan-27 22:00N 47°60' W 011°25'0 0.1 12.2
2016-Jan-27 21:00N 47°60' W 011°25'0 0.3 12.1
2016-Jan-27 20:00N 48°00' W 011°25'0 0.0 12.1
2016-Jan-27 18:00N 48°00' W 011°25'2 0.4 12.1
2016-Jan-27 13:00N 48°00' W 011°28'0 0.4 12.2
2016-Jan-27 12:00N 48°00' W 011°27'1 0.3 12.1
2016-Jan-27 09:00N 48°01' W 011°27'1 0.4 12.1
2016-Jan-27 07:00N 48°02' W 011°28'4 2.0 12.1
2016-Jan-27 05:00N 47°60' W 011°33'1 0.1 12.1
2016-Jan-26 21:00N 47°59' W 011°34'1 0.8 12.2
2016-Jan-26 20:00N 47°59' W 011°35'   12.2

Dump ship's entire track history